sensor_id;sensor_type;location;lat;lon;timestamp;temperature;humidity
31542;DHT22;18152;49.986;8.646;2022-09-21T00:00:30;8.00;99.90
31542;DHT22;18152;49.986;8.646;2022-09-21T00:02:57;8.00;99.90
31542;DHT22;18152;49.986;8.646;2022-09-21T00:05:23;8.10;99.90
31542;DHT22;18152;49.986;8.646;2022-09-21T00:07:49;7.90;99.90
31542;DHT22;18152;49.986;8.646;2022-09-21T00:10:15;7.80;99.90
31542;DHT22;18152;49.986;8.646;2022-09-21T00:12:41;7.80;99.90
31542;DHT22;18152;49.986;8.646;2022-09-21T00:15:08;7.70;99.90
31542;DHT22;18152;49.986;8.646;2022-09-21T00:17:35;7.60;99.90
31542;DHT22;18152;49.986;8.646;2022-09-21T00:20:05;7.70;99.90
31542;DHT22;18152;49.986;8.646;2022-09-21T00:22:32;7.60;99.90
31542;DHT22;18152;49.986;8.646;2022-09-21T00:24:57;7.70;99.90
31542;DHT22;18152;49.986;8.646;2022-09-21T00:27:23;7.70;99.90
31542;DHT22;18152;49.986;8.646;2022-09-21T00:29:58;7.60;99.90
31542;DHT22;18152;49.986;8.646;2022-09-21T00:32:25;7.60;99.90
31542;DHT22;18152;49.986;8.646;2022-09-21T00:34:51;7.50;99.90
31542;DHT22;18152;49.986;8.646;2022-09-21T00:37:17;7.50;99.90
31542;DHT22;18152;49.986;8.646;2022-09-21T00:39:43;7.60;99.90
31542;DHT22;18152;49.986;8.646;2022-09-21T00:42:12;7.50;99.90
31542;DHT22;18152;49.986;8.646;2022-09-21T00:44:39;7.40;99.90
31542;DHT22;18152;49.986;8.646;2022-09-21T00:47:13;7.30;99.90
31542;DHT22;18152;49.986;8.646;2022-09-21T00:49:41;7.30;99.90
31542;DHT22;18152;49.986;8.646;2022-09-21T00:52:08;7.40;99.90
31542;DHT22;18152;49.986;8.646;2022-09-21T00:54:57;7.30;99.90
31542;DHT22;18152;49.986;8.646;2022-09-21T00:57:26;7.40;99.90
31542;DHT22;18152;49.986;8.646;2022-09-21T00:59:56;7.40;99.90
31542;DHT22;18152;49.986;8.646;2022-09-21T01:02:23;7.50;99.90
31542;DHT22;18152;49.986;8.646;2022-09-21T01:04:51;7.50;99.90
31542;DHT22;18152;49.986;8.646;2022-09-21T01:07:21;7.70;99.90
31542;DHT22;18152;49.986;8.646;2022-09-21T01:09:50;7.60;99.90
31542;DHT22;18152;49.986;8.646;2022-09-21T01:12:42;7.50;99.90
31542;DHT22;18152;49.986;8.646;2022-09-21T01:18:35;7.40;99.90
31542;DHT22;18152;49.986;8.646;2022-09-21T01:34:29;7.40;99.90
31542;DHT22;18152;49.986;8.646;2022-09-21T01:37:02;7.30;99.90
31542;DHT22;18152;49.986;8.646;2022-09-21T01:39:29;7.30;99.90
31542;DHT22;18152;49.986;8.646;2022-09-21T01:41:57;7.30;99.90
31542;DHT22;18152;49.986;8.646;2022-09-21T01:44:27;7.30;99.90
31542;DHT22;18152;49.986;8.646;2022-09-21T01:46:54;7.30;99.90
31542;DHT22;18152;49.986;8.646;2022-09-21T01:49:25;7.30;99.90
31542;DHT22;18152;49.986;8.646;2022-09-21T01:51:57;7.10;99.90
31542;DHT22;18152;49.986;8.646;2022-09-21T01:54:29;7.10;99.90
31542;DHT22;18152;49.986;8.646;2022-09-21T01:57:00;7.10;99.90
31542;DHT22;18152;49.986;8.646;2022-09-21T01:59:50;7.10;99.90
31542;DHT22;18152;49.986;8.646;2022-09-21T02:02:30;7.20;99.90
31542;DHT22;18152;49.986;8.646;2022-09-21T02:05:01;7.20;99.90
31542;DHT22;18152;49.986;8.646;2022-09-21T02:07:28;7.20;99.90
31542;DHT22;18152;49.986;8.646;2022-09-21T02:09:54;7.20;99.90
31542;DHT22;18152;49.986;8.646;2022-09-21T02:12:21;7.10;99.90
31542;DHT22;18152;49.986;8.646;2022-09-21T02:14:48;7.20;99.90
31542;DHT22;18152;49.986;8.646;2022-09-21T02:17:34;7.20;99.90
31542;DHT22;18152;49.986;8.646;2022-09-21T02:20:22;7.10;99.90
31542;DHT22;18152;49.986;8.646;2022-09-21T02:23:11;7.00;99.90
31542;DHT22;18152;49.986;8.646;2022-09-21T02:25:47;7.00;99.90
31542;DHT22;18152;49.986;8.646;2022-09-21T02:28:23;7.10;99.90
31542;DHT22;18152;49.986;8.646;2022-09-21T02:31:05;7.00;99.90
31542;DHT22;18152;49.986;8.646;2022-09-21T02:33:47;7.10;99.90
31542;DHT22;18152;49.986;8.646;2022-09-21T02:36:32;6.90;99.90
31542;DHT22;18152;49.986;8.646;2022-09-21T02:39:07;6.90;99.90
31542;DHT22;18152;49.986;8.646;2022-09-21T02:41:42;6.80;99.90
31542;DHT22;18152;49.986;8.646;2022-09-21T02:46:53;6.70;99.90
31542;DHT22;18152;49.986;8.646;2022-09-21T02:49:24;6.70;99.90
31542;DHT22;18152;49.986;8.646;2022-09-21T02:51:57;6.80;99.90
31542;DHT22;18152;49.986;8.646;2022-09-21T02:54:27;6.60;99.90
31542;DHT22;18152;49.986;8.646;2022-09-21T02:56:54;6.50;99.90
31542;DHT22;18152;49.986;8.646;2022-09-21T02:59:21;6.50;99.90
31542;DHT22;18152;49.986;8.646;2022-09-21T03:01:49;6.40;99.90
31542;DHT22;18152;49.986;8.646;2022-09-21T03:04:15;6.50;99.90
31542;DHT22;18152;49.986;8.646;2022-09-21T03:06:41;6.60;99.90
31542;DHT22;18152;49.986;8.646;2022-09-21T03:09:07;6.40;99.90
31542;DHT22;18152;49.986;8.646;2022-09-21T03:11:33;6.40;99.90
31542;DHT22;18152;49.986;8.646;2022-09-21T03:14:01;6.30;99.90
31542;DHT22;18152;49.986;8.646;2022-09-21T03:16:29;6.30;99.90
31542;DHT22;18152;49.986;8.646;2022-09-21T03:18:55;6.20;99.90
31542;DHT22;18152;49.986;8.646;2022-09-21T03:21:21;6.20;99.90
31542;DHT22;18152;49.986;8.646;2022-09-21T03:23:46;6.30;99.90
31542;DHT22;18152;49.986;8.646;2022-09-21T03:26:12;6.40;99.90
31542;DHT22;18152;49.986;8.646;2022-09-21T03:28:37;6.30;99.90
31542;DHT22;18152;49.986;8.646;2022-09-21T03:31:03;6.30;99.90
31542;DHT22;18152;49.986;8.646;2022-09-21T03:33:30;6.20;99.90
31542;DHT22;18152;49.986;8.646;2022-09-21T03:35:56;6.10;99.90
31542;DHT22;18152;49.986;8.646;2022-09-21T03:38:22;6.10;99.90
31542;DHT22;18152;49.986;8.646;2022-09-21T03:40:49;6.00;99.90
31542;DHT22;18152;49.986;8.646;2022-09-21T03:43:16;6.10;99.90
31542;DHT22;18152;49.986;8.646;2022-09-21T03:45:42;6.10;99.90
31542;DHT22;18152;49.986;8.646;2022-09-21T03:48:09;6.10;99.90
31542;DHT22;18152;49.986;8.646;2022-09-21T03:50:35;6.20;99.90
31542;DHT22;18152;49.986;8.646;2022-09-21T03:53:01;6.10;99.90
31542;DHT22;18152;49.986;8.646;2022-09-21T03:55:26;6.10;99.90
31542;DHT22;18152;49.986;8.646;2022-09-21T03:57:52;6.00;99.90
31542;DHT22;18152;49.986;8.646;2022-09-21T04:00:18;6.00;99.90
31542;DHT22;18152;49.986;8.646;2022-09-21T04:02:43;5.90;99.90
31542;DHT22;18152;49.986;8.646;2022-09-21T04:05:11;6.00;99.90
31542;DHT22;18152;49.986;8.646;2022-09-21T04:07:39;5.90;99.90
31542;DHT22;18152;49.986;8.646;2022-09-21T04:10:07;6.00;99.90
31542;DHT22;18152;49.986;8.646;2022-09-21T04:12:37;6.00;99.90
31542;DHT22;18152;49.986;8.646;2022-09-21T04:15:03;6.00;99.90
31542;DHT22;18152;49.986;8.646;2022-09-21T04:17:32;6.00;99.90
31542;DHT22;18152;49.986;8.646;2022-09-21T04:19:58;6.00;99.90
31542;DHT22;18152;49.986;8.646;2022-09-21T04:22:24;6.00;99.90
31542;DHT22;18152;49.986;8.646;2022-09-21T04:24:50;5.90;99.90
31542;DHT22;18152;49.986;8.646;2022-09-21T04:27:15;6.00;99.90
31542;DHT22;18152;49.986;8.646;2022-09-21T04:29:42;5.90;99.90
31542;DHT22;18152;49.986;8.646;2022-09-21T04:32:09;5.90;99.90
31542;DHT22;18152;49.986;8.646;2022-09-21T04:34:35;6.10;99.90
31542;DHT22;18152;49.986;8.646;2022-09-21T04:37:02;6.10;99.90
31542;DHT22;18152;49.986;8.646;2022-09-21T04:39:28;6.10;99.90
31542;DHT22;18152;49.986;8.646;2022-09-21T04:41:53;6.10;99.90
31542;DHT22;18152;49.986;8.646;2022-09-21T04:44:19;6.10;99.90
31542;DHT22;18152;49.986;8.646;2022-09-21T04:46:45;6.10;99.90
31542;DHT22;18152;49.986;8.646;2022-09-21T04:49:10;6.10;99.90
31542;DHT22;18152;49.986;8.646;2022-09-21T04:51:36;6.10;99.90
31542;DHT22;18152;49.986;8.646;2022-09-21T04:54:02;6.20;99.90
31542;DHT22;18152;49.986;8.646;2022-09-21T04:56:28;6.10;99.90
31542;DHT22;18152;49.986;8.646;2022-09-21T04:58:53;6.20;99.90
31542;DHT22;18152;49.986;8.646;2022-09-21T05:01:19;6.30;99.90
31542;DHT22;18152;49.986;8.646;2022-09-21T05:03:45;6.20;99.90
31542;DHT22;18152;49.986;8.646;2022-09-21T05:06:10;6.30;99.90
31542;DHT22;18152;49.986;8.646;2022-09-21T05:08:38;6.40;99.90
31542;DHT22;18152;49.986;8.646;2022-09-21T05:11:22;6.40;99.90
31542;DHT22;18152;49.986;8.646;2022-09-21T05:13:48;6.40;99.90
31542;DHT22;18152;49.986;8.646;2022-09-21T05:16:15;6.40;99.90
31542;DHT22;18152;49.986;8.646;2022-09-21T05:18:41;6.40;99.90
31542;DHT22;18152;49.986;8.646;2022-09-21T05:21:07;6.50;99.90
31542;DHT22;18152;49.986;8.646;2022-09-21T05:23:33;6.40;99.90
31542;DHT22;18152;49.986;8.646;2022-09-21T05:25:59;6.60;99.90
31542;DHT22;18152;49.986;8.646;2022-09-21T05:28:25;6.60;99.90
31542;DHT22;18152;49.986;8.646;2022-09-21T05:33:56;6.60;99.90
31542;DHT22;18152;49.986;8.646;2022-09-21T05:38:51;6.60;99.90
31542;DHT22;18152;49.986;8.646;2022-09-21T05:41:17;6.50;99.90
31542;DHT22;18152;49.986;8.646;2022-09-21T05:43:43;6.60;99.90
31542;DHT22;18152;49.986;8.646;2022-09-21T05:46:33;6.70;99.90
31542;DHT22;18152;49.986;8.646;2022-09-21T05:49:03;6.70;99.90
31542;DHT22;18152;49.986;8.646;2022-09-21T05:51:35;6.70;99.90
31542;DHT22;18152;49.986;8.646;2022-09-21T05:54:18;6.80;99.90
31542;DHT22;18152;49.986;8.646;2022-09-21T05:57:00;6.70;99.90
31542;DHT22;18152;49.986;8.646;2022-09-21T06:00:08;6.80;99.90
31542;DHT22;18152;49.986;8.646;2022-09-21T06:05:13;6.90;99.90
31542;DHT22;18152;49.986;8.646;2022-09-21T06:07:39;6.90;99.90
31542;DHT22;18152;49.986;8.646;2022-09-21T06:10:06;6.90;99.90
31542;DHT22;18152;49.986;8.646;2022-09-21T06:12:32;7.00;99.90
31542;DHT22;18152;49.986;8.646;2022-09-21T06:14:58;6.90;99.90
31542;DHT22;18152;49.986;8.646;2022-09-21T06:17:23;7.00;99.90
31542;DHT22;18152;49.986;8.646;2022-09-21T06:19:52;7.20;99.90
31542;DHT22;18152;49.986;8.646;2022-09-21T06:22:17;7.20;99.90
31542;DHT22;18152;49.986;8.646;2022-09-21T06:24:43;7.30;99.90
31542;DHT22;18152;49.986;8.646;2022-09-21T06:27:09;7.30;99.90
31542;DHT22;18152;49.986;8.646;2022-09-21T06:29:34;7.50;99.90
31542;DHT22;18152;49.986;8.646;2022-09-21T06:32:01;7.60;99.90
31542;DHT22;18152;49.986;8.646;2022-09-21T06:34:27;7.70;99.90
31542;DHT22;18152;49.986;8.646;2022-09-21T06:36:52;8.00;99.90
31542;DHT22;18152;49.986;8.646;2022-09-21T06:39:18;8.30;99.90
31542;DHT22;18152;49.986;8.646;2022-09-21T06:41:43;8.50;99.90
31542;DHT22;18152;49.986;8.646;2022-09-21T06:44:09;8.80;99.90
31542;DHT22;18152;49.986;8.646;2022-09-21T06:46:34;8.90;99.90
31542;DHT22;18152;49.986;8.646;2022-09-21T06:49:00;9.20;99.90
31542;DHT22;18152;49.986;8.646;2022-09-21T06:51:26;9.40;99.90
31542;DHT22;18152;49.986;8.646;2022-09-21T06:53:58;9.70;99.90
31542;DHT22;18152;49.986;8.646;2022-09-21T06:56:24;9.60;99.90
31542;DHT22;18152;49.986;8.646;2022-09-21T06:58:50;10.10;99.90
31542;DHT22;18152;49.986;8.646;2022-09-21T07:01:17;10.30;99.90
31542;DHT22;18152;49.986;8.646;2022-09-21T07:03:43;10.40;99.90
31542;DHT22;18152;49.986;8.646;2022-09-21T07:06:10;10.50;99.90
31542;DHT22;18152;49.986;8.646;2022-09-21T07:08:38;10.50;99.90
31542;DHT22;18152;49.986;8.646;2022-09-21T07:11:04;10.60;99.90
31542;DHT22;18152;49.986;8.646;2022-09-21T07:13:30;10.70;99.90
31542;DHT22;18152;49.986;8.646;2022-09-21T07:15:56;10.80;99.90
31542;DHT22;18152;49.986;8.646;2022-09-21T07:18:22;10.80;99.90
31542;DHT22;18152;49.986;8.646;2022-09-21T07:20:47;10.90;99.90
31542;DHT22;18152;49.986;8.646;2022-09-21T07:23:18;10.70;99.90
31542;DHT22;18152;49.986;8.646;2022-09-21T07:25:48;10.70;99.90
31542;DHT22;18152;49.986;8.646;2022-09-21T07:28:15;10.70;99.90
31542;DHT22;18152;49.986;8.646;2022-09-21T07:30:40;10.50;99.90
31542;DHT22;18152;49.986;8.646;2022-09-21T07:33:06;10.50;99.90
31542;DHT22;18152;49.986;8.646;2022-09-21T07:35:32;10.40;99.90
31542;DHT22;18152;49.986;8.646;2022-09-21T07:38:00;10.20;99.90
31542;DHT22;18152;49.986;8.646;2022-09-21T07:40:26;10.20;99.90
31542;DHT22;18152;49.986;8.646;2022-09-21T07:42:56;9.90;99.90
31542;DHT22;18152;49.986;8.646;2022-09-21T07:45:21;9.90;99.90
31542;DHT22;18152;49.986;8.646;2022-09-21T07:47:47;9.70;99.90
31542;DHT22;18152;49.986;8.646;2022-09-21T07:50:12;9.70;99.90
31542;DHT22;18152;49.986;8.646;2022-09-21T07:52:39;9.70;99.90
31542;DHT22;18152;49.986;8.646;2022-09-21T07:55:04;9.60;99.90
31542;DHT22;18152;49.986;8.646;2022-09-21T07:57:30;9.50;99.90
31542;DHT22;18152;49.986;8.646;2022-09-21T08:00:14;9.50;99.90
31542;DHT22;18152;49.986;8.646;2022-09-21T08:02:40;9.70;99.90
31542;DHT22;18152;49.986;8.646;2022-09-21T08:05:06;9.80;99.90
31542;DHT22;18152;49.986;8.646;2022-09-21T08:07:32;9.80;99.90
31542;DHT22;18152;49.986;8.646;2022-09-21T08:09:57;10.00;99.90
31542;DHT22;18152;49.986;8.646;2022-09-21T08:12:23;10.00;99.90
31542;DHT22;18152;49.986;8.646;2022-09-21T08:14:48;10.00;99.90
31542;DHT22;18152;49.986;8.646;2022-09-21T08:17:14;10.20;99.90
31542;DHT22;18152;49.986;8.646;2022-09-21T08:19:40;10.40;99.90
31542;DHT22;18152;49.986;8.646;2022-09-21T08:22:06;10.50;99.90
31542;DHT22;18152;49.986;8.646;2022-09-21T08:24:32;10.70;99.90
31542;DHT22;18152;49.986;8.646;2022-09-21T08:26:58;11.00;99.90
31542;DHT22;18152;49.986;8.646;2022-09-21T08:29:24;11.30;99.90
31542;DHT22;18152;49.986;8.646;2022-09-21T08:31:50;11.70;99.90
31542;DHT22;18152;49.986;8.646;2022-09-21T08:34:16;12.10;99.90
31542;DHT22;18152;49.986;8.646;2022-09-21T08:36:44;12.50;99.90
31542;DHT22;18152;49.986;8.646;2022-09-21T08:39:10;13.20;99.90
31542;DHT22;18152;49.986;8.646;2022-09-21T08:44:31;13.80;99.90
31542;DHT22;18152;49.986;8.646;2022-09-21T08:47:09;14.30;99.90
31542;DHT22;18152;49.986;8.646;2022-09-21T08:49:37;14.60;99.90
31542;DHT22;18152;49.986;8.646;2022-09-21T08:52:11;14.80;99.90
31542;DHT22;18152;49.986;8.646;2022-09-21T08:57:11;15.20;99.90
31542;DHT22;18152;49.986;8.646;2022-09-21T08:59:40;15.60;99.90
31542;DHT22;18152;49.986;8.646;2022-09-21T09:02:40;15.90;99.90
31542;DHT22;18152;49.986;8.646;2022-09-21T09:05:22;16.10;99.90
31542;DHT22;18152;49.986;8.646;2022-09-21T09:12:52;16.70;99.90
31542;DHT22;18152;49.986;8.646;2022-09-21T09:20:24;16.10;99.90
31542;DHT22;18152;49.986;8.646;2022-09-21T09:23:12;16.20;99.90
31542;DHT22;18152;49.986;8.646;2022-09-21T09:25:42;16.50;99.90
31542;DHT22;18152;49.986;8.646;2022-09-21T09:28:22;16.60;99.90
31542;DHT22;18152;49.986;8.646;2022-09-21T09:31:05;16.40;99.90
31542;DHT22;18152;49.986;8.646;2022-09-21T09:36:10;16.80;99.90
31542;DHT22;18152;49.986;8.646;2022-09-21T09:39:00;17.00;99.90
31542;DHT22;18152;49.986;8.646;2022-09-21T09:41:34;17.20;99.90
31542;DHT22;18152;49.986;8.646;2022-09-21T09:52:26;17.50;99.90
31542;DHT22;18152;49.986;8.646;2022-09-21T09:54:52;17.30;99.90
31542;DHT22;18152;49.986;8.646;2022-09-21T09:57:28;17.40;99.90
31542;DHT22;18152;49.986;8.646;2022-09-21T09:59:57;17.80;99.90
31542;DHT22;18152;49.986;8.646;2022-09-21T10:02:27;18.00;99.90
31542;DHT22;18152;49.986;8.646;2022-09-21T10:07:36;18.00;99.90
31542;DHT22;18152;49.986;8.646;2022-09-21T10:10:34;18.30;99.90
31542;DHT22;18152;49.986;8.646;2022-09-21T10:13:30;18.40;99.90
31542;DHT22;18152;49.986;8.646;2022-09-21T10:15:58;18.40;99.90
31542;DHT22;18152;49.986;8.646;2022-09-21T10:18:54;18.50;99.90
31542;DHT22;18152;49.986;8.646;2022-09-21T10:24:02;18.60;97.40
31542;DHT22;18152;49.986;8.646;2022-09-21T10:32:04;18.80;99.90
31542;DHT22;18152;49.986;8.646;2022-09-21T10:34:33;18.70;99.60
31542;DHT22;18152;49.986;8.646;2022-09-21T10:37:00;18.70;99.90
31542;DHT22;18152;49.986;8.646;2022-09-21T10:39:32;18.50;99.90
31542;DHT22;18152;49.986;8.646;2022-09-21T10:44:27;18.30;99.90
31542;DHT22;18152;49.986;8.646;2022-09-21T10:46:54;18.40;99.50
31542;DHT22;18152;49.986;8.646;2022-09-21T10:49:27;18.60;99.90
31542;DHT22;18152;49.986;8.646;2022-09-21T10:51:56;18.60;97.40
31542;DHT22;18152;49.986;8.646;2022-09-21T10:54:27;18.70;96.00
31542;DHT22;18152;49.986;8.646;2022-09-21T10:57:03;18.20;97.00
31542;DHT22;18152;49.986;8.646;2022-09-21T10:59:32;18.10;99.90
31542;DHT22;18152;49.986;8.646;2022-09-21T11:02:01;18.00;97.00
31542;DHT22;18152;49.986;8.646;2022-09-21T11:04:43;18.00;98.40
31542;DHT22;18152;49.986;8.646;2022-09-21T11:07:17;18.20;95.10
31542;DHT22;18152;49.986;8.646;2022-09-21T11:10:32;18.00;99.20
31542;DHT22;18152;49.986;8.646;2022-09-21T11:12:56;18.00;99.60
31542;DHT22;18152;49.986;8.646;2022-09-21T11:15:48;18.40;95.30
31542;DHT22;18152;49.986;8.646;2022-09-21T11:21:14;18.20;94.20
31542;DHT22;18152;49.986;8.646;2022-09-21T11:23:51;18.50;89.50
31542;DHT22;18152;49.986;8.646;2022-09-21T11:26:36;18.60;96.50
31542;DHT22;18152;49.986;8.646;2022-09-21T11:29:10;18.80;93.60
31542;DHT22;18152;49.986;8.646;2022-09-21T12:10:38;20.60;93.10
31542;DHT22;18152;49.986;8.646;2022-09-21T12:14:20;21.00;86.80
31542;DHT22;18152;49.986;8.646;2022-09-21T12:21:55;21.10;84.80
31542;DHT22;18152;49.986;8.646;2022-09-21T12:24:44;21.10;84.00
31542;DHT22;18152;49.986;8.646;2022-09-21T12:27:36;21.10;88.20
31542;DHT22;18152;49.986;8.646;2022-09-21T12:30:14;21.40;93.80
31542;DHT22;18152;49.986;8.646;2022-09-21T12:32:42;21.10;77.90
31542;DHT22;18152;49.986;8.646;2022-09-21T12:35:18;21.00;78.80
31542;DHT22;18152;49.986;8.646;2022-09-21T12:37:48;20.70;73.00
31542;DHT22;18152;49.986;8.646;2022-09-21T12:40:30;20.30;73.00
31542;DHT22;18152;49.986;8.646;2022-09-21T12:45:47;20.70;87.90
31542;DHT22;18152;49.986;8.646;2022-09-21T12:48:38;20.60;75.90
31542;DHT22;18152;49.986;8.646;2022-09-21T12:51:15;20.60;77.40
31542;DHT22;18152;49.986;8.646;2022-09-21T12:53:47;20.50;87.90
31542;DHT22;18152;49.986;8.646;2022-09-21T12:56:24;21.00;83.90
31542;DHT22;18152;49.986;8.646;2022-09-21T13:01:51;21.20;79.80
31542;DHT22;18152;49.986;8.646;2022-09-21T13:04:33;20.10;70.80
31542;DHT22;18152;49.986;8.646;2022-09-21T13:07:20;19.60;80.80
31542;DHT22;18152;49.986;8.646;2022-09-21T13:09:51;19.70;87.60
31542;DHT22;18152;49.986;8.646;2022-09-21T13:12:39;19.80;74.10
31542;DHT22;18152;49.986;8.646;2022-09-21T13:15:20;19.90;76.70
31542;DHT22;18152;49.986;8.646;2022-09-21T13:18:03;19.90;74.80
31542;DHT22;18152;49.986;8.646;2022-09-21T13:20:36;19.80;81.00
31542;DHT22;18152;49.986;8.646;2022-09-21T13:23:04;20.10;80.10
31542;DHT22;18152;49.986;8.646;2022-09-21T13:25:31;20.20;82.20
31542;DHT22;18152;49.986;8.646;2022-09-21T13:28:07;20.40;75.50
31542;DHT22;18152;49.986;8.646;2022-09-21T13:36:35;19.40;78.00
31542;DHT22;18152;49.986;8.646;2022-09-21T13:39:18;19.30;76.40
31542;DHT22;18152;49.986;8.646;2022-09-21T13:41:45;19.50;73.00
31542;DHT22;18152;49.986;8.646;2022-09-21T13:46:58;19.30;73.00
31542;DHT22;18152;49.986;8.646;2022-09-21T13:49:31;19.50;78.50
31542;DHT22;18152;49.986;8.646;2022-09-21T13:52:25;19.50;73.40
31542;DHT22;18152;49.986;8.646;2022-09-21T13:54:59;19.40;74.60
31542;DHT22;18152;49.986;8.646;2022-09-21T13:57:31;19.00;77.30
31542;DHT22;18152;49.986;8.646;2022-09-21T14:02:43;19.40;79.90
31542;DHT22;18152;49.986;8.646;2022-09-21T14:07:58;19.40;91.20
31542;DHT22;18152;49.986;8.646;2022-09-21T14:10:25;19.60;77.40
31542;DHT22;18152;49.986;8.646;2022-09-21T14:12:53;19.80;82.80
31542;DHT22;18152;49.986;8.646;2022-09-21T14:21:07;19.70;89.20
31542;DHT22;18152;49.986;8.646;2022-09-21T14:23:34;19.80;78.90
31542;DHT22;18152;49.986;8.646;2022-09-21T14:26:01;20.00;80.70
31542;DHT22;18152;49.986;8.646;2022-09-21T14:28:45;19.70;76.60
31542;DHT22;18152;49.986;8.646;2022-09-21T14:31:28;19.00;76.40
31542;DHT22;18152;49.986;8.646;2022-09-21T14:33:58;18.30;78.90
31542;DHT22;18152;49.986;8.646;2022-09-21T14:36:45;17.90;83.60
31542;DHT22;18152;49.986;8.646;2022-09-21T14:39:18;17.40;82.30
31542;DHT22;18152;49.986;8.646;2022-09-21T14:41:46;17.20;91.30
31542;DHT22;18152;49.986;8.646;2022-09-21T14:44:29;16.90;92.10
31542;DHT22;18152;49.986;8.646;2022-09-21T14:55:10;16.30;95.30
31542;DHT22;18152;49.986;8.646;2022-09-21T15:00:23;16.20;93.70
31542;DHT22;18152;49.986;8.646;2022-09-21T15:06:25;16.20;90.50
31542;DHT22;18152;49.986;8.646;2022-09-21T15:09:29;16.30;91.80
31542;DHT22;18152;49.986;8.646;2022-09-21T15:12:27;16.70;95.90
31542;DHT22;18152;49.986;8.646;2022-09-21T15:15:30;16.90;90.30
31542;DHT22;18152;49.986;8.646;2022-09-21T15:18:00;17.00;95.00
31542;DHT22;18152;49.986;8.646;2022-09-21T15:20:30;16.90;87.00
31542;DHT22;18152;49.986;8.646;2022-09-21T15:22:57;16.80;89.00
31542;DHT22;18152;49.986;8.646;2022-09-21T15:25:25;16.80;85.10
31542;DHT22;18152;49.986;8.646;2022-09-21T15:27:53;16.70;89.80
31542;DHT22;18152;49.986;8.646;2022-09-21T15:30:21;16.60;89.70
31542;DHT22;18152;49.986;8.646;2022-09-21T15:32:55;16.50;90.60
31542;DHT22;18152;49.986;8.646;2022-09-21T15:35:28;16.50;89.70
31542;DHT22;18152;49.986;8.646;2022-09-21T15:37:55;16.50;87.10
31542;DHT22;18152;49.986;8.646;2022-09-21T15:40:33;16.40;87.50
31542;DHT22;18152;49.986;8.646;2022-09-21T15:43:03;16.40;90.20
31542;DHT22;18152;49.986;8.646;2022-09-21T15:45:35;16.40;90.30
31542;DHT22;18152;49.986;8.646;2022-09-21T15:48:05;16.40;86.80
31542;DHT22;18152;49.986;8.646;2022-09-21T15:50:35;16.30;91.30
31542;DHT22;18152;49.986;8.646;2022-09-21T15:53:06;16.20;94.20
31542;DHT22;18152;49.986;8.646;2022-09-21T15:55:33;16.20;92.30
31542;DHT22;18152;49.986;8.646;2022-09-21T15:57:59;16.10;90.40
31542;DHT22;18152;49.986;8.646;2022-09-21T16:00:32;16.10;88.10
31542;DHT22;18152;49.986;8.646;2022-09-21T16:03:15;16.10;87.70
31542;DHT22;18152;49.986;8.646;2022-09-21T16:05:45;15.90;87.00
31542;DHT22;18152;49.986;8.646;2022-09-21T16:08:20;15.90;86.30
31542;DHT22;18152;49.986;8.646;2022-09-21T16:10:50;15.80;85.30
31542;DHT22;18152;49.986;8.646;2022-09-21T16:13:23;15.70;87.80
31542;DHT22;18152;49.986;8.646;2022-09-21T16:16:12;15.60;94.40
31542;DHT22;18152;49.986;8.646;2022-09-21T16:23:45;15.10;97.40
31542;DHT22;18152;49.986;8.646;2022-09-21T16:26:34;15.10;91.40
31542;DHT22;18152;49.986;8.646;2022-09-21T16:29:38;15.20;88.80
31542;DHT22;18152;49.986;8.646;2022-09-21T16:34:49;15.10;87.90
31542;DHT22;18152;49.986;8.646;2022-09-21T16:39:45;14.90;98.00
31542;DHT22;18152;49.986;8.646;2022-09-21T16:42:11;14.80;99.90
31542;DHT22;18152;49.986;8.646;2022-09-21T16:44:37;14.60;99.90
31542;DHT22;18152;49.986;8.646;2022-09-21T16:47:20;14.50;98.60
31542;DHT22;18152;49.986;8.646;2022-09-21T16:49:54;14.40;99.90
31542;DHT22;18152;49.986;8.646;2022-09-21T16:52:22;14.30;99.90
31542;DHT22;18152;49.986;8.646;2022-09-21T16:54:49;14.10;99.90
31542;DHT22;18152;49.986;8.646;2022-09-21T16:57:15;14.10;99.90
31542;DHT22;18152;49.986;8.646;2022-09-21T16:59:41;14.00;99.90
31542;DHT22;18152;49.986;8.646;2022-09-21T17:02:09;13.80;99.90
31542;DHT22;18152;49.986;8.646;2022-09-21T17:04:35;13.80;99.90
31542;DHT22;18152;49.986;8.646;2022-09-21T17:07:01;13.70;99.90
31542;DHT22;18152;49.986;8.646;2022-09-21T17:09:37;13.60;99.90
31542;DHT22;18152;49.986;8.646;2022-09-21T17:12:05;13.50;99.90
31542;DHT22;18152;49.986;8.646;2022-09-21T17:14:33;13.40;99.90
31542;DHT22;18152;49.986;8.646;2022-09-21T17:17:23;13.30;99.90
31542;DHT22;18152;49.986;8.646;2022-09-21T17:19:51;13.10;99.90
31542;DHT22;18152;49.986;8.646;2022-09-21T17:22:17;13.00;99.90
31542;DHT22;18152;49.986;8.646;2022-09-21T17:24:50;12.90;99.90
31542;DHT22;18152;49.986;8.646;2022-09-21T17:27:23;12.80;99.90
31542;DHT22;18152;49.986;8.646;2022-09-21T17:29:50;12.60;99.90
31542;DHT22;18152;49.986;8.646;2022-09-21T17:32:19;12.60;99.90
31542;DHT22;18152;49.986;8.646;2022-09-21T17:34:46;12.40;99.90
31542;DHT22;18152;49.986;8.646;2022-09-21T17:37:14;12.30;99.90
31542;DHT22;18152;49.986;8.646;2022-09-21T17:39:40;12.30;99.90
31542;DHT22;18152;49.986;8.646;2022-09-21T17:42:17;12.10;99.90
31542;DHT22;18152;49.986;8.646;2022-09-21T17:44:49;11.90;99.90
31542;DHT22;18152;49.986;8.646;2022-09-21T17:47:21;11.90;99.90
31542;DHT22;18152;49.986;8.646;2022-09-21T17:49:49;11.80;99.90
31542;DHT22;18152;49.986;8.646;2022-09-21T17:52:17;11.70;99.90
31542;DHT22;18152;49.986;8.646;2022-09-21T17:55:03;11.70;99.90
31542;DHT22;18152;49.986;8.646;2022-09-21T18:03:27;11.40;99.90
31542;DHT22;18152;49.986;8.646;2022-09-21T18:05:54;11.30;99.90
31542;DHT22;18152;49.986;8.646;2022-09-21T18:08:29;11.20;99.90
31542;DHT22;18152;49.986;8.646;2022-09-21T18:13:44;11.10;99.90
31542;DHT22;18152;49.986;8.646;2022-09-21T18:18:50;10.90;99.90
31542;DHT22;18152;49.986;8.646;2022-09-21T18:21:22;10.80;99.90
31542;DHT22;18152;49.986;8.646;2022-09-21T18:26:36;10.70;99.90
31542;DHT22;18152;49.986;8.646;2022-09-21T18:29:04;10.70;99.90
31542;DHT22;18152;49.986;8.646;2022-09-21T18:45:11;10.30;99.90
31542;DHT22;18152;49.986;8.646;2022-09-21T18:50:40;10.20;99.90
31542;DHT22;18152;49.986;8.646;2022-09-21T18:55:41;10.20;99.90
31542;DHT22;18152;49.986;8.646;2022-09-21T18:58:08;10.10;99.90
31542;DHT22;18152;49.986;8.646;2022-09-21T19:00:34;10.10;99.90
31542;DHT22;18152;49.986;8.646;2022-09-21T19:03:04;10.00;99.90
31542;DHT22;18152;49.986;8.646;2022-09-21T19:05:31;9.90;99.90
31542;DHT22;18152;49.986;8.646;2022-09-21T19:08:32;9.80;99.90
31542;DHT22;18152;49.986;8.646;2022-09-21T19:11:00;9.90;99.90
31542;DHT22;18152;49.986;8.646;2022-09-21T19:13:41;9.80;99.90
31542;DHT22;18152;49.986;8.646;2022-09-21T19:21:30;9.70;99.90
31542;DHT22;18152;49.986;8.646;2022-09-21T19:29:44;9.50;99.90
31542;DHT22;18152;49.986;8.646;2022-09-21T19:32:23;9.50;99.90